Betagas — V2KA8 — position and weather

sailwx.info

Track history (hours):
 
Tides and Currents Weather Stations Pressure Air Temp Water Temp Dewpoint Dewpoint Depression Visibility Wind Speed Wind Dir Waves Ship Positions

Betagas

Last reported at 2016-Feb-12 19:32 UTC. Time now 2016-Feb-12 20:31 UTC.
Position N 54°15' E 009°37'.

Length 114.6 m; beam 15.7 m; draft 7.4 m.

Type: Tanker. MMSI: 304050636.

Date/timePositionNaut miles runAvg speedWind from/ knotsBaromVisibWave heightAir tempDewpointWater temp
2016-Feb-12 19:32N 54°15' E 009°37'8 7.7
2016-Feb-12 18:29N 54°10' E 009°26'7 5.6
2016-Feb-12 17:16N 54°04' E 009°19'6 7.8
2016-Feb-12 16:32N 53°59' E 009°17'7 7.3
2016-Feb-12 15:33N 53°54' E 009°09'0 0.0
2016-Feb-12 14:33N 53°54' E 009°09'4 4.5
2016-Feb-12 13:33N 53°52' E 009°16'1111.3
2016-Feb-12 12:33N 53°43' E 009°28'5 4.7
2016-Feb-12 11:33N 53°39' E 009°31'0 0.0
2016-Feb-12 10:33N 53°39' E 009°31'0 0.0
2016-Feb-12 09:33N 53°39' E 009°31'0 0.0
2016-Feb-12 08:33N 53°39' E 009°31'0 0.0
2016-Feb-12 07:33N 53°39' E 009°31'0 0.0
2016-Feb-12 06:33N 53°39' E 009°31'0 0.0
2016-Feb-12 05:33N 53°39' E 009°31'0 0.0
2016-Feb-12 04:33N 53°39' E 009°31'0 0.0
2016-Feb-12 03:33N 53°39' E 009°31'0 0.0
2016-Feb-12 02:33N 53°39' E 009°31'0 0.0
2016-Feb-12 01:33N 53°39' E 009°31'0 0.0
2016-Feb-12 00:33N 53°39' E 009°31'0 0.0
2016-Feb-11 23:30N 53°39' E 009°31'0 0.0
2016-Feb-11 22:33N 53°39' E 009°31'0 0.0
2016-Feb-11 21:33N 53°39' E 009°31'0 0.0
2016-Feb-11 20:33N 53°39' E 009°31'0 0.0
2016-Feb-11 19:33N 53°39' E 009°31'0 0.0
2016-Feb-11 18:33N 53°39' E 009°31'0 0.0
2016-Feb-11 17:33N 53°39' E 009°31'0 0.1
2016-Feb-11 16:33N 53°39' E 009°31'6 6.5
2016-Feb-11 15:33N 53°45' E 009°25'9 9.0
2016-Feb-11 14:33N 53°52' E 009°16'1212.1
2016-Feb-11 13:33N 53°51' E 008°56'1313.1
2016-Feb-11 12:33N 53°57' E 008°37'1414.3
2016-Feb-11 11:33N 53°59' E 008°13'4 3.9
2016-Feb-11 10:33N 54°03' E 008°10'0 0.0
2016-Feb-11 09:33N 54°03' E 008°10'0 0.0
2016-Feb-11 08:31N 54°03' E 008°10'0 0.0
2016-Feb-11 07:33N 54°03' E 008°10'0 0.2
2016-Feb-11 06:34N 54°03' E 008°09'0 0.0
2016-Feb-11 05:33N 54°03' E 008°09'0 0.1
2016-Feb-11 04:31N 54°03' E 008°09'0 0.2
2016-Feb-11 03:33N 54°03' E 008°10'0 0.1
2016-Feb-11 02:33N 54°03' E 008°10'0 0.0
2016-Feb-11 01:31N 54°03' E 008°10'0 0.0
2016-Feb-11 00:33N 54°03' E 008°10'0 0.0
2016-Feb-10 23:33N 54°03' E 008°10'0 0.0
2016-Feb-10 22:30N 54°03' E 008°10'0 0.0
2016-Feb-10 21:31N 54°03' E 008°10'0 0.0
2016-Feb-10 20:30N 54°03' E 008°10'0 0.0
2016-Feb-10 19:33N 54°03' E 008°10'0 0.2
2016-Feb-10 18:34N 54°03' E 008°09'0 0.1
2016-Feb-10 17:33N 54°03' E 008°09'0 0.0
2016-Feb-10 16:30N 54°03' E 008°09'0 0.0
2016-Feb-10 15:30N 54°03' E 008°09'0 0.2
2016-Feb-10 14:28N 54°03' E 008°10'0 0.1
2016-Feb-10 13:31N 54°03' E 008°10'0 0.0
2016-Feb-10 12:30N 54°03' E 008°10'0 0.0
2016-Feb-10 11:34N 54°03' E 008°10'0 0.0
2016-Feb-10 10:33N 54°03' E 008°10'0 0.0
2016-Feb-10 09:33N 54°03' E 008°10'0 0.1
2016-Feb-10 08:33N 54°03' E 008°10'0 0.1
2016-Feb-10 07:33N 54°03' E 008°10'0 0.1
2016-Feb-10 06:30N 54°03' E 008°09'0 0.1
2016-Feb-10 05:28N 54°03' E 008°09'0 0.0
2016-Feb-10 04:33N 54°03' E 008°09'0 0.0
2016-Feb-10 03:33N 54°03' E 008°09'0 0.1
2016-Feb-10 02:33N 54°03' E 008°09'0 0.2
2016-Feb-10 01:31N 54°03' E 008°10'0 0.0
2016-Feb-10 00:33N 54°03' E 008°10'3 3.2
2016-Feb-09 23:33N 54°03' E 008°04'1514.7
2016-Feb-09 22:33N 54°07' E 007°41'1515.2
2016-Feb-09 21:33N 54°09' E 007°15'1616.0
2016-Feb-09 20:32N 54°09' E 006°47'1615.8
2016-Feb-09 19:31N 54°08' E 006°20'1515.5
2016-Feb-09 18:33N 54°06' E 005°54'1514.9
2016-Feb-09 17:33N 54°04' E 005°29'1514.6
2016-Feb-09 16:33N 54°02' E 005°04'15813.2
2016-Feb-09 04:33N 54°29' E 000°38'1414.4
2016-Feb-09 03:33N 54°32' E 000°14'1515.3
2016-Feb-09 02:34N 54°35' W 000°12'1515.3
2016-Feb-09 01:33N 54°37' W 000°39'1514.9
2016-Feb-09 00:33N 54°40' W 001°04'6 5.7
2016-Feb-08 23:33N 54°36' W 001°11'1 0.0
2016-Feb-07 15:33N 54°37' W 001°10'7 7.3
2016-Feb-07 14:33N 54°44' W 001°07'1 1.4
2016-Feb-07 13:32N 54°45' W 001°09'0 0.1
2016-Feb-07 12:32N 54°45' W 001°09'0 0.0
2016-Feb-07 11:32N 54°45' W 001°09'0 0.0
2016-Feb-07 10:32N 54°45' W 001°09'0 0.0
2016-Feb-07 09:32N 54°45' W 001°09'0 0.0
2016-Feb-07 08:32N 54°45' W 001°09'0 0.0
2016-Feb-07 07:29N 54°45' W 001°09'0 0.0
2016-Feb-07 06:29N 54°45' W 001°09'0 0.0
2016-Feb-07 05:29N 54°45' W 001°09'0 0.0
2016-Feb-07 04:29N 54°45' W 001°09'0 0.1
2016-Feb-07 03:32N 54°45' W 001°09'0 0.0
2016-Feb-07 02:32N 54°45' W 001°09'0 0.0
2016-Feb-07 01:32N 54°45' W 001°09'0 0.0
2016-Feb-07 00:32N 54°45' W 001°09'0 0.1
2016-Feb-06 23:32N 54°45' W 001°09'0 0.0
2016-Feb-06 22:32N 54°45' W 001°09'0 0.0
2016-Feb-06 21:32N 54°45' W 001°09'0 0.0
2016-Feb-06 20:32N 54°45' W 001°09'0 0.0
2016-Feb-06 19:32N 54°45' W 001°09'0 0.0
2016-Feb-06 18:32N 54°45' W 001°09'0 0.0
2016-Feb-06 17:32N 54°45' W 001°09'0 0.0
2016-Feb-06 16:32N 54°45' W 001°09'0 0.1
2016-Feb-06 15:32N 54°45' W 001°09'0 0.0
2016-Feb-06 14:32N 54°45' W 001°09'0 0.0
2016-Feb-06 13:26N 54°45' W 001°09'0 0.0
2016-Feb-06 12:29N 54°45' W 001°09'0 0.0
2016-Feb-06 11:32N 54°45' W 001°09'0 0.0
2016-Feb-06 10:26N 54°45' W 001°09'7 7.6
2016-Feb-06 09:33N 54°46' W 000°58'1515.3
2016-Feb-06 08:33N 54°39' W 000°34'1515.7
2016-Feb-06 07:33N 54°35' W 000°08'1515.4
2016-Feb-06 06:33N 54°32' E 000°18'1514.9
2016-Feb-06 05:32N 54°29' E 000°44'15313.9
2016-Feb-05 18:30N 54°05' E 005°03'1313.4
2016-Feb-05 17:32N 54°07' E 005°25'1313.3
2016-Feb-05 16:33N 54°09' E 005°48'4314.0
2016-Feb-05 13:31N 54°12' E 007°00'1414.8
2016-Feb-05 12:33N 54°13' E 007°24'1514.7
2016-Feb-05 11:33N 54°07' E 007°48'1515.2
2016-Feb-05 10:34N 54°01' E 008°11'1414.0
2016-Feb-05 09:33N 53°58' E 008°35'1211.8
2016-Feb-05 08:33N 53°50' E 008°50'1111.2
2016-Feb-05 07:31N 53°53' E 009°09'1010.5
2016-Feb-05 06:33N 53°47' E 009°23'8 6.8
2016-Feb-05 05:25N 53°40' E 009°30'0 0.0
2016-Feb-05 04:19N 53°40' E 009°30'0 0.0
2016-Feb-05 03:25N 53°40' E 009°30'0 0.0
2016-Feb-05 02:34N 53°40' E 009°30'1 0.1
2016-Feb-04 01:07N 53°39' E 009°31'4 5.5
2016-Feb-04 00:25N 53°43' E 009°29'1011.6
2016-Feb-03 23:33N 53°51' E 009°19'1110.5
2016-Feb-03 22:33N 53°51' E 009°01'1111.5
2016-Feb-03 21:33N 53°53' E 008°42'1212.1
2016-Feb-03 20:33N 53°59' E 008°24'1111.0
2016-Feb-03 19:33N 53°59' E 008°05'1110.7
2016-Feb-03 18:33N 53°56' E 007°48'1413.6
2016-Feb-03 17:33N 53°54' E 007°25'1414.1
2016-Feb-03 16:33N 53°50' E 007°02'1414.2
2016-Feb-03 15:33N 53°47' E 006°38'1414.2
2016-Feb-03 14:34N 53°44' E 006°15'1414.3
2016-Feb-03 13:34N 53°39' E 005°52'1414.4
2016-Feb-03 12:34N 53°35' E 005°29'1514.5
2016-Feb-03 11:32N 53°30' E 005°06'2713.0
2016-Feb-03 09:30N 53°12' E 004°33'1213.0
2016-Feb-03 08:33N 53°01' E 004°23'1312.7
2016-Feb-03 07:33N 52°50' E 004°14'1413.2
2016-Feb-03 06:28N 52°39' E 003°59'6011.5
2016-Feb-03 01:14N 51°45' E 003°16'7 9.6
2016-Feb-03 00:28N 51°38' E 003°21'1213.6
2016-Feb-02 23:33N 51°28' E 003°31'10 9.6
2016-Feb-02 22:33N 51°23' E 003°44'2 2.2
2016-Feb-02 21:33N 51°21' E 003°46'0 0.0
2016-Feb-02 20:31N 51°21' E 003°46'  
Track history (hours):
 
Tides and Currents Weather Stations Pressure Air Temp Water Temp Dewpoint Dewpoint Depression Visibility Wind Speed Wind Dir Waves Ship Positions

Betagas

Last reported at 2016-Feb-12 19:32 UTC. Time now 2016-Feb-12 20:31 UTC.
Position N 54°15' E 009°37'.

Length 114.6 m; beam 15.7 m; draft 7.4 m.

Type: Tanker. MMSI: 304050636.

Date/timePositionNaut miles runAvg speedWind from/ knotsBaromVisibWave heightAir tempDewpointWater temp
2016-Feb-12 19:32N 54°15' E 009°37'8 7.7
2016-Feb-12 18:29N 54°10' E 009°26'7 5.6
2016-Feb-12 17:16N 54°04' E 009°19'6 7.8
2016-Feb-12 16:32N 53°59' E 009°17'7 7.3
2016-Feb-12 15:33N 53°54' E 009°09'0 0.0
2016-Feb-12 14:33N 53°54' E 009°09'4 4.5
2016-Feb-12 13:33N 53°52' E 009°16'1111.3
2016-Feb-12 12:33N 53°43' E 009°28'5 4.7
2016-Feb-12 11:33N 53°39' E 009°31'0 0.0
2016-Feb-12 10:33N 53°39' E 009°31'0 0.0
2016-Feb-12 09:33N 53°39' E 009°31'0 0.0
2016-Feb-12 08:33N 53°39' E 009°31'0 0.0
2016-Feb-12 07:33N 53°39' E 009°31'0 0.0
2016-Feb-12 06:33N 53°39' E 009°31'0 0.0
2016-Feb-12 05:33N 53°39' E 009°31'0 0.0
2016-Feb-12 04:33N 53°39' E 009°31'0 0.0
2016-Feb-12 03:33N 53°39' E 009°31'0 0.0
2016-Feb-12 02:33N 53°39' E 009°31'0 0.0
2016-Feb-12 01:33N 53°39' E 009°31'0 0.0
2016-Feb-12 00:33N 53°39' E 009°31'0 0.0
2016-Feb-11 23:30N 53°39' E 009°31'0 0.0
2016-Feb-11 22:33N 53°39' E 009°31'0 0.0
2016-Feb-11 21:33N 53°39' E 009°31'0 0.0
2016-Feb-11 20:33N 53°39' E 009°31'0 0.0
2016-Feb-11 19:33N 53°39' E 009°31'0 0.0
2016-Feb-11 18:33N 53°39' E 009°31'0 0.0
2016-Feb-11 17:33N 53°39' E 009°31'0 0.1
2016-Feb-11 16:33N 53°39' E 009°31'6 6.5
2016-Feb-11 15:33N 53°45' E 009°25'9 9.0
2016-Feb-11 14:33N 53°52' E 009°16'1212.1
2016-Feb-11 13:33N 53°51' E 008°56'1313.1
2016-Feb-11 12:33N 53°57' E 008°37'1414.3
2016-Feb-11 11:33N 53°59' E 008°13'4 3.9
2016-Feb-11 10:33N 54°03' E 008°10'0 0.0
2016-Feb-11 09:33N 54°03' E 008°10'0 0.0
2016-Feb-11 08:31N 54°03' E 008°10'0 0.0
2016-Feb-11 07:33N 54°03' E 008°10'0 0.2
2016-Feb-11 06:34N 54°03' E 008°09'0 0.0
2016-Feb-11 05:33N 54°03' E 008°09'0 0.1
2016-Feb-11 04:31N 54°03' E 008°09'0 0.2
2016-Feb-11 03:33N 54°03' E 008°10'0 0.1
2016-Feb-11 02:33N 54°03' E 008°10'0 0.0
2016-Feb-11 01:31N 54°03' E 008°10'0 0.0
2016-Feb-11 00:33N 54°03' E 008°10'0 0.0
2016-Feb-10 23:33N 54°03' E 008°10'0 0.0
2016-Feb-10 22:30N 54°03' E 008°10'0 0.0
2016-Feb-10 21:31N 54°03' E 008°10'0 0.0
2016-Feb-10 20:30N 54°03' E 008°10'0 0.0
2016-Feb-10 19:33N 54°03' E 008°10'0 0.2
2016-Feb-10 18:34N 54°03' E 008°09'0 0.1
2016-Feb-10 17:33N 54°03' E 008°09'0 0.0
2016-Feb-10 16:30N 54°03' E 008°09'0 0.0
2016-Feb-10 15:30N 54°03' E 008°09'0 0.2
2016-Feb-10 14:28N 54°03' E 008°10'0 0.1
2016-Feb-10 13:31N 54°03' E 008°10'0 0.0
2016-Feb-10 12:30N 54°03' E 008°10'0 0.0
2016-Feb-10 11:34N 54°03' E 008°10'0 0.0
2016-Feb-10 10:33N 54°03' E 008°10'0 0.0
2016-Feb-10 09:33N 54°03' E 008°10'0 0.1
2016-Feb-10 08:33N 54°03' E 008°10'0 0.1
2016-Feb-10 07:33N 54°03' E 008°10'0 0.1
2016-Feb-10 06:30N 54°03' E 008°09'0 0.1
2016-Feb-10 05:28N 54°03' E 008°09'0 0.0
2016-Feb-10 04:33N 54°03' E 008°09'0 0.0
2016-Feb-10 03:33N 54°03' E 008°09'0 0.1
2016-Feb-10 02:33N 54°03' E 008°09'0 0.2
2016-Feb-10 01:31N 54°03' E 008°10'0 0.0
2016-Feb-10 00:33N 54°03' E 008°10'3 3.2
2016-Feb-09 23:33N 54°03' E 008°04'1514.7
2016-Feb-09 22:33N 54°07' E 007°41'1515.2
2016-Feb-09 21:33N 54°09' E 007°15'1616.0
2016-Feb-09 20:32N 54°09' E 006°47'1615.8
2016-Feb-09 19:31N 54°08' E 006°20'1515.5
2016-Feb-09 18:33N 54°06' E 005°54'1514.9
2016-Feb-09 17:33N 54°04' E 005°29'1514.6
2016-Feb-09 16:33N 54°02' E 005°04'15813.2
2016-Feb-09 04:33N 54°29' E 000°38'1414.4
2016-Feb-09 03:33N 54°32' E 000°14'1515.3
2016-Feb-09 02:34N 54°35' W 000°12'1515.3
2016-Feb-09 01:33N 54°37' W 000°39'1514.9
2016-Feb-09 00:33N 54°40' W 001°04'6 5.7
2016-Feb-08 23:33N 54°36' W 001°11'1 0.0
2016-Feb-07 15:33N 54°37' W 001°10'7 7.3
2016-Feb-07 14:33N 54°44' W 001°07'1 1.4
2016-Feb-07 13:32N 54°45' W 001°09'0 0.1
2016-Feb-07 12:32N 54°45' W 001°09'0 0.0
2016-Feb-07 11:32N 54°45' W 001°09'0 0.0
2016-Feb-07 10:32N 54°45' W 001°09'0 0.0
2016-Feb-07 09:32N 54°45' W 001°09'0 0.0
2016-Feb-07 08:32N 54°45' W 001°09'0 0.0
2016-Feb-07 07:29N 54°45' W 001°09'0 0.0
2016-Feb-07 06:29N 54°45' W 001°09'0 0.0
2016-Feb-07 05:29N 54°45' W 001°09'0 0.0
2016-Feb-07 04:29N 54°45' W 001°09'0 0.1
2016-Feb-07 03:32N 54°45' W 001°09'0 0.0
2016-Feb-07 02:32N 54°45' W 001°09'0 0.0
2016-Feb-07 01:32N 54°45' W 001°09'0 0.0
2016-Feb-07 00:32N 54°45' W 001°09'0 0.1
2016-Feb-06 23:32N 54°45' W 001°09'0 0.0
2016-Feb-06 22:32N 54°45' W 001°09'0 0.0
2016-Feb-06 21:32N 54°45' W 001°09'0 0.0
2016-Feb-06 20:32N 54°45' W 001°09'0 0.0
2016-Feb-06 19:32N 54°45' W 001°09'0 0.0
2016-Feb-06 18:32N 54°45' W 001°09'0 0.0
2016-Feb-06 17:32N 54°45' W 001°09'0 0.0
2016-Feb-06 16:32N 54°45' W 001°09'0 0.1
2016-Feb-06 15:32N 54°45' W 001°09'0 0.0
2016-Feb-06 14:32N 54°45' W 001°09'0 0.0
2016-Feb-06 13:26N 54°45' W 001°09'0 0.0
2016-Feb-06 12:29N 54°45' W 001°09'0 0.0
2016-Feb-06 11:32N 54°45' W 001°09'0 0.0
2016-Feb-06 10:26N 54°45' W 001°09'7 7.6
2016-Feb-06 09:33N 54°46' W 000°58'1515.3
2016-Feb-06 08:33N 54°39' W 000°34'1515.7
2016-Feb-06 07:33N 54°35' W 000°08'1515.4
2016-Feb-06 06:33N 54°32' E 000°18'1514.9
2016-Feb-06 05:32N 54°29' E 000°44'15313.9
2016-Feb-05 18:30N 54°05' E 005°03'1313.4
2016-Feb-05 17:32N 54°07' E 005°25'1313.3
2016-Feb-05 16:33N 54°09' E 005°48'4314.0
2016-Feb-05 13:31N 54°12' E 007°00'1414.8
2016-Feb-05 12:33N 54°13' E 007°24'1514.7
2016-Feb-05 11:33N 54°07' E 007°48'1515.2
2016-Feb-05 10:34N 54°01' E 008°11'1414.0
2016-Feb-05 09:33N 53°58' E 008°35'1211.8
2016-Feb-05 08:33N 53°50' E 008°50'1111.2
2016-Feb-05 07:31N 53°53' E 009°09'1010.5
2016-Feb-05 06:33N 53°47' E 009°23'8 6.8
2016-Feb-05 05:25N 53°40' E 009°30'0 0.0
2016-Feb-05 04:19N 53°40' E 009°30'0 0.0
2016-Feb-05 03:25N 53°40' E 009°30'0 0.0
2016-Feb-05 02:34N 53°40' E 009°30'1 0.1
2016-Feb-04 01:07N 53°39' E 009°31'4 5.5
2016-Feb-04 00:25N 53°43' E 009°29'1011.6
2016-Feb-03 23:33N 53°51' E 009°19'1110.5
2016-Feb-03 22:33N 53°51' E 009°01'1111.5
2016-Feb-03 21:33N 53°53' E 008°42'1212.1
2016-Feb-03 20:33N 53°59' E 008°24'1111.0
2016-Feb-03 19:33N 53°59' E 008°05'1110.7
2016-Feb-03 18:33N 53°56' E 007°48'1413.6
2016-Feb-03 17:33N 53°54' E 007°25'1414.1
2016-Feb-03 16:33N 53°50' E 007°02'1414.2
2016-Feb-03 15:33N 53°47' E 006°38'1414.2
2016-Feb-03 14:34N 53°44' E 006°15'1414.3
2016-Feb-03 13:34N 53°39' E 005°52'1414.4
2016-Feb-03 12:34N 53°35' E 005°29'1514.5
2016-Feb-03 11:32N 53°30' E 005°06'2713.0
2016-Feb-03 09:30N 53°12' E 004°33'1213.0
2016-Feb-03 08:33N 53°01' E 004°23'1312.7
2016-Feb-03 07:33N 52°50' E 004°14'1413.2
2016-Feb-03 06:28N 52°39' E 003°59'6011.5
2016-Feb-03 01:14N 51°45' E 003°16'7 9.6
2016-Feb-03 00:28N 51°38' E 003°21'1213.6
2016-Feb-02 23:33N 51°28' E 003°31'10 9.6
2016-Feb-02 22:33N 51°23' E 003°44'2 2.2
2016-Feb-02 21:33N 51°21' E 003°46'0 0.0
2016-Feb-02 20:31N 51°21' E 003°46'  

Dump ship's entire track history